sensor_id;sensor_type;location;lat;lon;timestamp;P1;durP1;ratioP1;P2;durP2;ratioP2
19173;SDS011;9719;49.322;8.536;2022-10-17T00:00:52;4.07;;;2.08;;
19173;SDS011;9719;49.322;8.536;2022-10-17T00:05:56;1.50;;;1.40;;
19173;SDS011;9719;49.322;8.536;2022-10-17T00:10:59;2.28;;;2.05;;
19173;SDS011;9719;49.322;8.536;2022-10-17T00:16:03;4.63;;;2.10;;
19173;SDS011;9719;49.322;8.536;2022-10-17T00:21:10;5.13;;;2.30;;
19173;SDS011;9719;49.322;8.536;2022-10-17T00:26:16;1.90;;;1.80;;
19173;SDS011;9719;49.322;8.536;2022-10-17T00:31:18;5.65;;;2.03;;
19173;SDS011;9719;49.322;8.536;2022-10-17T00:36:23;4.82;;;2.08;;
19173;SDS011;9719;49.322;8.536;2022-10-17T00:41:27;4.30;;;2.22;;
19173;SDS011;9719;49.322;8.536;2022-10-17T00:46:31;3.17;;;2.42;;
19173;SDS011;9719;49.322;8.536;2022-10-17T00:51:38;3.85;;;1.92;;
19173;SDS011;9719;49.322;8.536;2022-10-17T00:56:43;2.63;;;1.95;;
19173;SDS011;9719;49.322;8.536;2022-10-17T01:01:48;2.55;;;1.70;;
19173;SDS011;9719;49.322;8.536;2022-10-17T01:06:58;4.60;;;2.30;;
19173;SDS011;9719;49.322;8.536;2022-10-17T01:12:01;3.55;;;2.30;;
19173;SDS011;9719;49.322;8.536;2022-10-17T01:17:08;2.72;;;2.55;;
19173;SDS011;9719;49.322;8.536;2022-10-17T01:22:18;4.03;;;2.28;;
19173;SDS011;9719;49.322;8.536;2022-10-17T01:32:56;3.58;;;2.35;;
19173;SDS011;9719;49.322;8.536;2022-10-17T01:38:03;8.20;;;3.17;;
19173;SDS011;9719;49.322;8.536;2022-10-17T01:43:10;2.45;;;1.92;;
19173;SDS011;9719;49.322;8.536;2022-10-17T01:48:19;2.47;;;2.28;;
19173;SDS011;9719;49.322;8.536;2022-10-17T01:53:26;3.38;;;2.30;;
19173;SDS011;9719;49.322;8.536;2022-10-17T01:58:31;4.28;;;1.95;;
19173;SDS011;9719;49.322;8.536;2022-10-17T02:03:38;2.75;;;1.88;;
19173;SDS011;9719;49.322;8.536;2022-10-17T02:08:43;9.05;;;2.40;;
19173;SDS011;9719;49.322;8.536;2022-10-17T02:13:51;3.97;;;2.80;;
19173;SDS011;9719;49.322;8.536;2022-10-17T02:19:11;2.50;;;2.30;;
19173;SDS011;9719;49.322;8.536;2022-10-17T02:24:26;4.50;;;3.20;;
19173;SDS011;9719;49.322;8.536;2022-10-17T02:29:33;2.50;;;2.30;;
19173;SDS011;9719;49.322;8.536;2022-10-17T02:34:45;2.50;;;2.17;;
19173;SDS011;9719;49.322;8.536;2022-10-17T02:39:50;4.15;;;2.30;;
19173;SDS011;9719;49.322;8.536;2022-10-17T02:44:54;3.85;;;2.70;;
19173;SDS011;9719;49.322;8.536;2022-10-17T02:50:01;5.18;;;2.28;;
19173;SDS011;9719;49.322;8.536;2022-10-17T02:55:05;4.22;;;2.33;;
19173;SDS011;9719;49.322;8.536;2022-10-17T03:00:12;1.80;;;1.70;;
19173;SDS011;9719;49.322;8.536;2022-10-17T03:05:18;5.00;;;2.13;;
19173;SDS011;9719;49.322;8.536;2022-10-17T03:10:22;3.35;;;2.53;;
19173;SDS011;9719;49.322;8.536;2022-10-17T03:15:24;3.20;;;2.03;;
19173;SDS011;9719;49.322;8.536;2022-10-17T03:20:27;7.60;;;2.97;;
19173;SDS011;9719;49.322;8.536;2022-10-17T03:25:30;2.60;;;2.40;;
19173;SDS011;9719;49.322;8.536;2022-10-17T03:30:32;2.97;;;2.30;;
19173;SDS011;9719;49.322;8.536;2022-10-17T03:35:36;2.83;;;2.42;;
19173;SDS011;9719;49.322;8.536;2022-10-17T03:40:39;4.75;;;2.67;;
19173;SDS011;9719;49.322;8.536;2022-10-17T03:45:41;3.25;;;2.55;;
19173;SDS011;9719;49.322;8.536;2022-10-17T03:50:45;8.50;;;2.35;;
19173;SDS011;9719;49.322;8.536;2022-10-17T03:55:47;3.03;;;2.70;;
19173;SDS011;9719;49.322;8.536;2022-10-17T04:00:49;2.33;;;2.13;;
19173;SDS011;9719;49.322;8.536;2022-10-17T04:05:52;3.90;;;2.80;;
19173;SDS011;9719;49.322;8.536;2022-10-17T04:10:56;4.28;;;3.13;;
19173;SDS011;9719;49.322;8.536;2022-10-17T04:16:00;3.03;;;2.83;;
19173;SDS011;9719;49.322;8.536;2022-10-17T04:21:05;6.38;;;3.25;;
19173;SDS011;9719;49.322;8.536;2022-10-17T04:26:09;4.15;;;2.85;;
19173;SDS011;9719;49.322;8.536;2022-10-17T04:31:12;6.53;;;3.30;;
19173;SDS011;9719;49.322;8.536;2022-10-17T04:36:17;3.08;;;2.65;;
19173;SDS011;9719;49.322;8.536;2022-10-17T04:41:20;3.05;;;2.63;;
19173;SDS011;9719;49.322;8.536;2022-10-17T04:46:22;3.03;;;2.72;;
19173;SDS011;9719;49.322;8.536;2022-10-17T04:51:25;3.25;;;2.95;;
19173;SDS011;9719;49.322;8.536;2022-10-17T04:56:27;5.57;;;2.83;;
19173;SDS011;9719;49.322;8.536;2022-10-17T05:01:30;3.13;;;2.47;;
19173;SDS011;9719;49.322;8.536;2022-10-17T05:06:33;5.38;;;3.70;;
19173;SDS011;9719;49.322;8.536;2022-10-17T05:11:36;2.85;;;2.40;;
19173;SDS011;9719;49.322;8.536;2022-10-17T05:16:38;3.42;;;2.97;;
19173;SDS011;9719;49.322;8.536;2022-10-17T05:21:42;2.67;;;2.42;;
19173;SDS011;9719;49.322;8.536;2022-10-17T05:26:44;3.17;;;2.20;;
19173;SDS011;9719;49.322;8.536;2022-10-17T05:31:46;2.92;;;1.90;;
19173;SDS011;9719;49.322;8.536;2022-10-17T05:36:49;7.35;;;2.97;;
19173;SDS011;9719;49.322;8.536;2022-10-17T05:41:51;4.47;;;2.25;;
19173;SDS011;9719;49.322;8.536;2022-10-17T05:46:53;3.63;;;2.30;;
19173;SDS011;9719;49.322;8.536;2022-10-17T05:51:56;5.70;;;2.40;;
19173;SDS011;9719;49.322;8.536;2022-10-17T05:56:58;2.70;;;2.50;;
19173;SDS011;9719;49.322;8.536;2022-10-17T06:02:00;2.83;;;2.60;;
19173;SDS011;9719;49.322;8.536;2022-10-17T06:07:04;3.40;;;2.00;;
19173;SDS011;9719;49.322;8.536;2022-10-17T06:12:06;2.75;;;2.22;;
19173;SDS011;9719;49.322;8.536;2022-10-17T06:17:08;4.05;;;2.65;;
19173;SDS011;9719;49.322;8.536;2022-10-17T06:22:11;4.45;;;2.70;;
19173;SDS011;9719;49.322;8.536;2022-10-17T06:27:14;6.53;;;3.22;;
19173;SDS011;9719;49.322;8.536;2022-10-17T06:32:16;2.75;;;2.30;;
19173;SDS011;9719;49.322;8.536;2022-10-17T06:37:19;2.33;;;2.13;;
19173;SDS011;9719;49.322;8.536;2022-10-17T06:42:21;3.42;;;2.53;;
19173;SDS011;9719;49.322;8.536;2022-10-17T06:47:23;3.50;;;2.03;;
19173;SDS011;9719;49.322;8.536;2022-10-17T06:52:26;2.83;;;2.20;;
19173;SDS011;9719;49.322;8.536;2022-10-17T06:57:28;2.90;;;2.30;;
19173;SDS011;9719;49.322;8.536;2022-10-17T07:02:30;3.38;;;2.45;;
19173;SDS011;9719;49.322;8.536;2022-10-17T07:07:34;3.50;;;1.92;;
19173;SDS011;9719;49.322;8.536;2022-10-17T07:12:36;3.75;;;2.65;;
19173;SDS011;9719;49.322;8.536;2022-10-17T07:17:38;3.38;;;2.30;;
19173;SDS011;9719;49.322;8.536;2022-10-17T07:22:41;5.22;;;2.30;;
19173;SDS011;9719;49.322;8.536;2022-10-17T07:27:43;2.00;;;1.80;;
19173;SDS011;9719;49.322;8.536;2022-10-17T07:32:45;3.60;;;2.13;;
19173;SDS011;9719;49.322;8.536;2022-10-17T07:37:49;2.55;;;2.35;;
19173;SDS011;9719;49.322;8.536;2022-10-17T07:42:51;3.28;;;1.83;;
19173;SDS011;9719;49.322;8.536;2022-10-17T07:47:55;2.33;;;1.90;;
19173;SDS011;9719;49.322;8.536;2022-10-17T07:52:58;6.90;;;2.00;;
19173;SDS011;9719;49.322;8.536;2022-10-17T07:58:01;3.28;;;1.85;;
19173;SDS011;9719;49.322;8.536;2022-10-17T08:03:03;3.17;;;2.35;;
19173;SDS011;9719;49.322;8.536;2022-10-17T08:08:07;4.53;;;2.70;;
19173;SDS011;9719;49.322;8.536;2022-10-17T08:13:09;2.97;;;1.85;;
19173;SDS011;9719;49.322;8.536;2022-10-17T08:18:11;1.92;;;1.70;;
19173;SDS011;9719;49.322;8.536;2022-10-17T08:23:14;2.92;;;1.85;;
19173;SDS011;9719;49.322;8.536;2022-10-17T08:28:16;4.15;;;1.73;;
19173;SDS011;9719;49.322;8.536;2022-10-17T08:33:18;2.72;;;1.90;;
19173;SDS011;9719;49.322;8.536;2022-10-17T08:38:22;2.47;;;1.85;;
19173;SDS011;9719;49.322;8.536;2022-10-17T08:43:27;3.85;;;1.80;;
19173;SDS011;9719;49.322;8.536;2022-10-17T08:48:38;2.55;;;2.00;;
19173;SDS011;9719;49.322;8.536;2022-10-17T08:53:45;4.13;;;1.88;;
19173;SDS011;9719;49.322;8.536;2022-10-17T08:58:50;3.35;;;1.85;;
19173;SDS011;9719;49.322;8.536;2022-10-17T09:04:00;3.83;;;1.98;;
19173;SDS011;9719;49.322;8.536;2022-10-17T09:09:24;2.45;;;1.55;;
19173;SDS011;9719;49.322;8.536;2022-10-17T09:14:41;8.80;;;3.40;;
19173;SDS011;9719;49.322;8.536;2022-10-17T09:20:08;3.30;;;2.22;;
19173;SDS011;9719;49.322;8.536;2022-10-17T09:25:17;2.42;;;1.67;;
19173;SDS011;9719;49.322;8.536;2022-10-17T09:30:23;4.47;;;1.95;;
19173;SDS011;9719;49.322;8.536;2022-10-17T09:35:31;5.65;;;1.83;;
19173;SDS011;9719;49.322;8.536;2022-10-17T09:40:35;3.45;;;1.88;;
19173;SDS011;9719;49.322;8.536;2022-10-17T09:45:39;5.10;;;1.77;;
19173;SDS011;9719;49.322;8.536;2022-10-17T09:50:47;3.90;;;1.80;;
19173;SDS011;9719;49.322;8.536;2022-10-17T09:55:51;1.98;;;1.38;;
19173;SDS011;9719;49.322;8.536;2022-10-17T10:00:57;3.13;;;1.67;;
19173;SDS011;9719;49.322;8.536;2022-10-17T10:06:17;2.10;;;1.60;;
19173;SDS011;9719;49.322;8.536;2022-10-17T10:11:23;7.57;;;2.90;;
19173;SDS011;9719;49.322;8.536;2022-10-17T10:16:29;2.90;;;1.58;;
19173;SDS011;9719;49.322;8.536;2022-10-17T10:21:33;1.85;;;1.33;;
19173;SDS011;9719;49.322;8.536;2022-10-17T10:26:37;2.95;;;1.83;;
19173;SDS011;9719;49.322;8.536;2022-10-17T10:31:41;2.90;;;1.75;;
19173;SDS011;9719;49.322;8.536;2022-10-17T10:36:44;1.83;;;1.60;;
19173;SDS011;9719;49.322;8.536;2022-10-17T10:41:51;4.57;;;1.27;;
19173;SDS011;9719;49.322;8.536;2022-10-17T10:47:06;2.28;;;1.40;;
19173;SDS011;9719;49.322;8.536;2022-10-17T10:52:17;4.60;;;1.50;;
19173;SDS011;9719;49.322;8.536;2022-10-17T10:57:27;3.20;;;1.40;;
19173;SDS011;9719;49.322;8.536;2022-10-17T11:02:35;3.28;;;2.17;;
19173;SDS011;9719;49.322;8.536;2022-10-17T11:07:44;2.53;;;1.30;;
19173;SDS011;9719;49.322;8.536;2022-10-17T11:12:53;2.22;;;1.20;;
19173;SDS011;9719;49.322;8.536;2022-10-17T11:18:02;3.65;;;1.40;;
19173;SDS011;9719;49.322;8.536;2022-10-17T11:23:11;6.30;;;2.72;;
19173;SDS011;9719;49.322;8.536;2022-10-17T11:28:22;2.30;;;1.70;;
19173;SDS011;9719;49.322;8.536;2022-10-17T11:33:26;2.55;;;2.28;;
19173;SDS011;9719;49.322;8.536;2022-10-17T11:38:42;3.03;;;1.40;;
19173;SDS011;9719;49.322;8.536;2022-10-17T11:43:50;3.72;;;1.67;;
19173;SDS011;9719;49.322;8.536;2022-10-17T11:49:03;1.83;;;1.73;;
19173;SDS011;9719;49.322;8.536;2022-10-17T11:54:12;4.28;;;1.42;;
19173;SDS011;9719;49.322;8.536;2022-10-17T11:59:29;1.63;;;1.35;;
19173;SDS011;9719;49.322;8.536;2022-10-17T12:04:51;6.45;;;2.08;;
19173;SDS011;9719;49.322;8.536;2022-10-17T12:10:02;3.92;;;2.80;;
19173;SDS011;9719;49.322;8.536;2022-10-17T12:20:39;3.38;;;1.83;;
19173;SDS011;9719;49.322;8.536;2022-10-17T12:25:46;3.67;;;1.85;;
19173;SDS011;9719;49.322;8.536;2022-10-17T12:30:53;1.63;;;1.38;;
19173;SDS011;9719;49.322;8.536;2022-10-17T12:41:52;2.80;;;1.50;;
19173;SDS011;9719;49.322;8.536;2022-10-17T12:46:56;1.67;;;1.42;;
19173;SDS011;9719;49.322;8.536;2022-10-17T12:57:57;4.30;;;2.00;;
19173;SDS011;9719;49.322;8.536;2022-10-17T13:03:04;1.60;;;1.33;;
19173;SDS011;9719;49.322;8.536;2022-10-17T13:08:14;2.05;;;1.85;;
19173;SDS011;9719;49.322;8.536;2022-10-17T13:13:19;3.70;;;1.38;;
19173;SDS011;9719;49.322;8.536;2022-10-17T13:18:25;2.20;;;1.95;;
19173;SDS011;9719;49.322;8.536;2022-10-17T13:23:30;3.22;;;1.70;;
19173;SDS011;9719;49.322;8.536;2022-10-17T13:28:33;2.35;;;1.92;;
19173;SDS011;9719;49.322;8.536;2022-10-17T13:33:37;3.42;;;1.85;;
19173;SDS011;9719;49.322;8.536;2022-10-17T13:38:41;3.53;;;2.38;;
19173;SDS011;9719;49.322;8.536;2022-10-17T13:43:43;3.75;;;1.52;;
19173;SDS011;9719;49.322;8.536;2022-10-17T13:48:47;2.85;;;1.50;;
19173;SDS011;9719;49.322;8.536;2022-10-17T13:53:49;2.67;;;1.75;;
19173;SDS011;9719;49.322;8.536;2022-10-17T13:58:52;4.07;;;1.60;;
19173;SDS011;9719;49.322;8.536;2022-10-17T14:03:57;2.25;;;1.67;;
19173;SDS011;9719;49.322;8.536;2022-10-17T14:09:00;2.95;;;1.52;;
19173;SDS011;9719;49.322;8.536;2022-10-17T14:14:06;7.00;;;1.75;;
19173;SDS011;9719;49.322;8.536;2022-10-17T14:19:23;4.97;;;2.05;;
19173;SDS011;9719;49.322;8.536;2022-10-17T14:24:34;1.50;;;1.40;;
19173;SDS011;9719;49.322;8.536;2022-10-17T14:29:49;2.33;;;1.73;;
19173;SDS011;9719;49.322;8.536;2022-10-17T14:34:54;6.72;;;2.53;;
19173;SDS011;9719;49.322;8.536;2022-10-17T14:39:57;4.10;;;1.88;;
19173;SDS011;9719;49.322;8.536;2022-10-17T14:45:11;2.65;;;1.88;;
19173;SDS011;9719;49.322;8.536;2022-10-17T14:50:21;2.78;;;2.30;;
19173;SDS011;9719;49.322;8.536;2022-10-17T14:55:26;2.00;;;1.85;;
19173;SDS011;9719;49.322;8.536;2022-10-17T15:00:29;2.05;;;1.58;;
19173;SDS011;9719;49.322;8.536;2022-10-17T15:05:33;2.67;;;1.45;;
19173;SDS011;9719;49.322;8.536;2022-10-17T15:10:35;1.67;;;1.35;;
19173;SDS011;9719;49.322;8.536;2022-10-17T15:15:41;2.00;;;1.80;;
19173;SDS011;9719;49.322;8.536;2022-10-17T15:20:45;2.90;;;1.80;;
19173;SDS011;9719;49.322;8.536;2022-10-17T15:25:47;3.75;;;2.33;;
19173;SDS011;9719;49.322;8.536;2022-10-17T15:30:49;2.42;;;1.42;;
19173;SDS011;9719;49.322;8.536;2022-10-17T15:35:52;3.08;;;1.95;;
19173;SDS011;9719;49.322;8.536;2022-10-17T15:40:54;3.75;;;1.80;;
19173;SDS011;9719;49.322;8.536;2022-10-17T15:45:57;1.63;;;1.40;;
19173;SDS011;9719;49.322;8.536;2022-10-17T15:51:06;2.85;;;2.00;;
19173;SDS011;9719;49.322;8.536;2022-10-17T15:56:18;1.95;;;1.73;;
19173;SDS011;9719;49.322;8.536;2022-10-17T16:01:23;4.22;;;2.20;;
19173;SDS011;9719;49.322;8.536;2022-10-17T16:06:28;3.63;;;1.95;;
19173;SDS011;9719;49.322;8.536;2022-10-17T16:11:30;5.15;;;2.28;;
19173;SDS011;9719;49.322;8.536;2022-10-17T16:16:36;2.47;;;2.28;;
19173;SDS011;9719;49.322;8.536;2022-10-17T16:21:40;4.20;;;2.25;;
19173;SDS011;9719;49.322;8.536;2022-10-17T16:26:42;4.68;;;2.53;;
19173;SDS011;9719;49.322;8.536;2022-10-17T16:31:44;3.00;;;2.33;;
19173;SDS011;9719;49.322;8.536;2022-10-17T16:36:48;7.18;;;3.38;;
19173;SDS011;9719;49.322;8.536;2022-10-17T16:41:50;4.28;;;2.85;;
19173;SDS011;9719;49.322;8.536;2022-10-17T16:46:52;5.38;;;3.33;;
19173;SDS011;9719;49.322;8.536;2022-10-17T16:51:55;3.72;;;2.88;;
19173;SDS011;9719;49.322;8.536;2022-10-17T16:56:57;3.85;;;2.47;;
19173;SDS011;9719;49.322;8.536;2022-10-17T17:01:59;4.13;;;3.47;;
19173;SDS011;9719;49.322;8.536;2022-10-17T17:07:03;3.47;;;2.97;;
19173;SDS011;9719;49.322;8.536;2022-10-17T17:12:05;5.30;;;4.63;;
19173;SDS011;9719;49.322;8.536;2022-10-17T17:17:07;6.53;;;3.50;;
19173;SDS011;9719;49.322;8.536;2022-10-17T17:22:10;5.88;;;3.78;;
19173;SDS011;9719;49.322;8.536;2022-10-17T17:27:12;5.50;;;4.10;;
19173;SDS011;9719;49.322;8.536;2022-10-17T17:32:14;6.97;;;4.53;;
19173;SDS011;9719;49.322;8.536;2022-10-17T17:37:17;3.95;;;3.25;;
19173;SDS011;9719;49.322;8.536;2022-10-17T17:42:19;4.43;;;3.50;;
19173;SDS011;9719;49.322;8.536;2022-10-17T17:47:21;8.18;;;3.85;;
19173;SDS011;9719;49.322;8.536;2022-10-17T17:52:25;8.32;;;4.13;;
19173;SDS011;9719;49.322;8.536;2022-10-17T17:57:28;12.60;;;5.35;;
19173;SDS011;9719;49.322;8.536;2022-10-17T18:02:30;5.30;;;3.95;;
19173;SDS011;9719;49.322;8.536;2022-10-17T18:07:45;6.50;;;3.42;;
19173;SDS011;9719;49.322;8.536;2022-10-17T18:12:47;7.30;;;4.10;;
19173;SDS011;9719;49.322;8.536;2022-10-17T18:17:49;5.88;;;3.45;;
19173;SDS011;9719;49.322;8.536;2022-10-17T18:22:53;6.38;;;4.05;;
19173;SDS011;9719;49.322;8.536;2022-10-17T18:27:55;11.68;;;5.25;;
19173;SDS011;9719;49.322;8.536;2022-10-17T18:32:57;6.38;;;5.38;;
19173;SDS011;9719;49.322;8.536;2022-10-17T18:38:00;9.43;;;5.38;;
19173;SDS011;9719;49.322;8.536;2022-10-17T18:43:02;5.22;;;4.72;;
19173;SDS011;9719;49.322;8.536;2022-10-17T18:48:04;6.10;;;3.95;;
19173;SDS011;9719;49.322;8.536;2022-10-17T18:53:08;7.05;;;5.57;;
19173;SDS011;9719;49.322;8.536;2022-10-17T18:58:10;9.02;;;4.85;;
19173;SDS011;9719;49.322;8.536;2022-10-17T19:03:12;5.65;;;4.93;;
19173;SDS011;9719;49.322;8.536;2022-10-17T19:08:15;6.80;;;5.10;;
19173;SDS011;9719;49.322;8.536;2022-10-17T19:13:17;9.20;;;4.50;;
19173;SDS011;9719;49.322;8.536;2022-10-17T19:18:19;7.20;;;4.10;;
19173;SDS011;9719;49.322;8.536;2022-10-17T19:23:23;9.45;;;4.72;;
19173;SDS011;9719;49.322;8.536;2022-10-17T19:28:24;3.80;;;3.22;;
19173;SDS011;9719;49.322;8.536;2022-10-17T19:33:27;5.40;;;4.45;;
19173;SDS011;9719;49.322;8.536;2022-10-17T19:38:30;7.63;;;4.95;;
19173;SDS011;9719;49.322;8.536;2022-10-17T19:43:34;4.45;;;3.97;;
19173;SDS011;9719;49.322;8.536;2022-10-17T19:48:36;7.13;;;3.83;;
19173;SDS011;9719;49.322;8.536;2022-10-17T19:53:41;5.78;;;4.47;;
19173;SDS011;9719;49.322;8.536;2022-10-17T19:58:44;11.40;;;5.85;;
19173;SDS011;9719;49.322;8.536;2022-10-17T20:03:47;4.03;;;3.72;;
19173;SDS011;9719;49.322;8.536;2022-10-17T20:08:51;6.75;;;3.90;;
19173;SDS011;9719;49.322;8.536;2022-10-17T20:13:53;4.78;;;3.72;;
19173;SDS011;9719;49.322;8.536;2022-10-17T20:18:57;5.53;;;4.13;;
19173;SDS011;9719;49.322;8.536;2022-10-17T20:24:05;4.32;;;3.65;;
19173;SDS011;9719;49.322;8.536;2022-10-17T20:29:10;5.18;;;4.68;;
19173;SDS011;9719;49.322;8.536;2022-10-17T20:34:14;7.60;;;4.20;;
19173;SDS011;9719;49.322;8.536;2022-10-17T20:39:19;6.45;;;4.18;;
19173;SDS011;9719;49.322;8.536;2022-10-17T20:44:21;4.25;;;3.85;;
19173;SDS011;9719;49.322;8.536;2022-10-17T20:49:23;4.18;;;3.70;;
19173;SDS011;9719;49.322;8.536;2022-10-17T20:54:27;4.65;;;3.90;;
19173;SDS011;9719;49.322;8.536;2022-10-17T20:59:29;4.47;;;3.50;;
19173;SDS011;9719;49.322;8.536;2022-10-17T21:04:33;5.80;;;4.35;;
19173;SDS011;9719;49.322;8.536;2022-10-17T21:09:36;4.75;;;3.40;;
19173;SDS011;9719;49.322;8.536;2022-10-17T21:14:38;7.30;;;4.25;;
19173;SDS011;9719;49.322;8.536;2022-10-17T21:19:40;9.77;;;4.47;;
19173;SDS011;9719;49.322;8.536;2022-10-17T21:24:44;7.72;;;3.75;;
19173;SDS011;9719;49.322;8.536;2022-10-17T21:29:46;8.52;;;4.45;;
19173;SDS011;9719;49.322;8.536;2022-10-17T21:34:48;17.02;;;5.25;;
19173;SDS011;9719;49.322;8.536;2022-10-17T21:39:52;6.32;;;4.10;;
19173;SDS011;9719;49.322;8.536;2022-10-17T21:44:54;8.57;;;4.55;;
19173;SDS011;9719;49.322;8.536;2022-10-17T21:49:56;7.32;;;4.20;;
19173;SDS011;9719;49.322;8.536;2022-10-17T21:54:59;5.57;;;3.40;;
19173;SDS011;9719;49.322;8.536;2022-10-17T22:00:01;5.30;;;3.83;;
19173;SDS011;9719;49.322;8.536;2022-10-17T22:05:05;5.03;;;4.38;;
19173;SDS011;9719;49.322;8.536;2022-10-17T22:10:08;5.35;;;3.60;;
19173;SDS011;9719;49.322;8.536;2022-10-17T22:15:10;5.20;;;3.40;;
19173;SDS011;9719;49.322;8.536;2022-10-17T22:20:13;5.22;;;3.65;;
19173;SDS011;9719;49.322;8.536;2022-10-17T22:25:16;12.73;;;4.75;;
19173;SDS011;9719;49.322;8.536;2022-10-17T22:30:18;4.28;;;3.83;;
19173;SDS011;9719;49.322;8.536;2022-10-17T22:35:20;8.07;;;4.95;;
19173;SDS011;9719;49.322;8.536;2022-10-17T22:40:23;5.57;;;3.95;;
19173;SDS011;9719;49.322;8.536;2022-10-17T22:45:26;6.03;;;4.03;;
19173;SDS011;9719;49.322;8.536;2022-10-17T22:50:28;8.07;;;3.85;;
19173;SDS011;9719;49.322;8.536;2022-10-17T22:55:31;4.57;;;4.18;;
19173;SDS011;9719;49.322;8.536;2022-10-17T23:00:33;4.78;;;4.03;;
19173;SDS011;9719;49.322;8.536;2022-10-17T23:05:35;4.35;;;3.58;;
19173;SDS011;9719;49.322;8.536;2022-10-17T23:10:39;4.57;;;4.18;;
19173;SDS011;9719;49.322;8.536;2022-10-17T23:15:41;8.63;;;4.97;;
19173;SDS011;9719;49.322;8.536;2022-10-17T23:20:43;5.43;;;3.88;;
19173;SDS011;9719;49.322;8.536;2022-10-17T23:25:47;5.13;;;3.70;;
19173;SDS011;9719;49.322;8.536;2022-10-17T23:30:49;11.10;;;4.13;;
19173;SDS011;9719;49.322;8.536;2022-10-17T23:35:51;5.72;;;4.07;;
19173;SDS011;9719;49.322;8.536;2022-10-17T23:40:55;6.00;;;4.22;;
19173;SDS011;9719;49.322;8.536;2022-10-17T23:45:57;6.40;;;3.53;;
19173;SDS011;9719;49.322;8.536;2022-10-17T23:50:59;5.75;;;3.40;;
19173;SDS011;9719;49.322;8.536;2022-10-17T23:56:03;4.68;;;3.90;;
